createdAt,value
2023-03-24T00:00:03.702Z,11.58
2023-03-24T00:01:09.011Z,11.55
2023-03-24T00:02:12.955Z,11.47
2023-03-24T00:03:18.289Z,11.48
2023-03-24T00:04:21.167Z,11.47
2023-03-24T00:05:23.779Z,11.45
2023-03-24T00:06:26.577Z,11.47
2023-03-24T00:07:30.517Z,11.47
2023-03-24T00:08:36.969Z,11.46
2023-03-24T00:09:42.181Z,11.42
2023-03-24T00:10:47.090Z,11.42
2023-03-24T00:11:49.595Z,11.35
2023-03-24T00:12:51.840Z,11.35
2023-03-24T00:13:56.554Z,11.37
2023-03-24T00:15:01.010Z,11.40
2023-03-24T00:16:08.571Z,11.40
2023-03-24T00:17:15.840Z,11.41
2023-03-24T00:18:21.112Z,11.40
2023-03-24T00:19:24.433Z,11.40
2023-03-24T00:20:28.417Z,11.38
2023-03-24T00:21:31.971Z,11.34
2023-03-24T00:22:36.235Z,11.29
2023-03-24T00:23:40.843Z,11.29
2023-03-24T00:24:48.169Z,11.28
2023-03-24T00:26:03.235Z,11.29
2023-03-24T00:27:05.732Z,11.33
2023-03-24T00:28:10.094Z,11.34
2023-03-24T00:29:13.266Z,11.35
2023-03-24T00:30:18.129Z,11.32
2023-03-24T00:31:20.493Z,11.28
2023-03-24T00:32:23.614Z,11.23
2023-03-24T00:33:26.052Z,11.22
2023-03-24T00:34:28.315Z,11.14
2023-03-24T00:35:30.914Z,11.08
2023-03-24T00:36:33.878Z,11.09
2023-03-24T00:37:38.838Z,11.08
2023-03-24T00:38:41.423Z,11.05
2023-03-24T00:39:43.976Z,11.05
2023-03-24T00:40:48.160Z,11.05
2023-03-24T00:41:50.888Z,11.08
2023-03-24T00:42:54.448Z,11.13
2023-03-24T00:43:59.670Z,11.14
2023-03-24T00:45:04.574Z,11.13
2023-03-24T00:46:10.579Z,11.08
2023-03-24T00:47:13.617Z,11.03
2023-03-24T00:48:17.785Z,11.00
2023-03-24T00:49:22.466Z,11.08
2023-03-24T00:50:27.483Z,11.12
2023-03-24T00:51:36.863Z,11.13
2023-03-24T00:52:41.120Z,11.14
2023-03-24T00:53:43.596Z,11.11
2023-03-24T00:54:49.231Z,11.10
2023-03-24T00:55:51.895Z,11.05
2023-03-24T00:56:56.330Z,11.08
2023-03-24T00:58:00.501Z,11.08
2023-03-24T00:59:03.817Z,11.06
2023-03-24T01:00:12.981Z,11.02
2023-03-24T01:01:15.451Z,11.07
2023-03-24T01:02:24.121Z,11.07
2023-03-24T01:03:27.006Z,10.98
2023-03-24T01:04:30.080Z,10.92
2023-03-24T01:05:33.330Z,10.92
2023-03-24T01:06:36.865Z,10.94
2023-03-24T01:07:40.980Z,10.99
2023-03-24T01:08:44.494Z,10.93
2023-03-24T01:09:50.286Z,10.90
2023-03-24T01:10:53.884Z,10.94
2023-03-24T01:11:56.841Z,10.95
2023-03-24T01:13:00.350Z,10.92
2023-03-24T01:14:04.628Z,10.88
2023-03-24T01:15:11.340Z,10.86
2023-03-24T01:16:14.624Z,10.88
2023-03-24T01:17:18.771Z,10.88
2023-03-24T01:18:23.709Z,10.85
2023-03-24T01:19:26.587Z,10.86
2023-03-24T01:20:32.405Z,10.86
2023-03-24T01:21:36.377Z,10.86
2023-03-24T01:22:42.882Z,10.86
2023-03-24T01:23:45.232Z,10.90
2023-03-24T01:24:49.133Z,10.87
2023-03-24T01:25:53.527Z,10.87
2023-03-24T01:26:56.875Z,10.89
2023-03-24T01:27:59.610Z,10.89
2023-03-24T01:29:03.048Z,10.81
2023-03-24T01:30:07.350Z,10.82
2023-03-24T01:31:10.446Z,10.83
2023-03-24T01:32:12.942Z,10.87
2023-03-24T01:33:15.849Z,10.91
2023-03-24T01:34:18.265Z,10.92
2023-03-24T01:35:22.689Z,10.86
2023-03-24T01:36:25.008Z,10.83
2023-03-24T01:37:27.265Z,10.87
2023-03-24T01:38:29.858Z,10.83
2023-03-24T01:39:32.209Z,10.85
2023-03-24T01:40:37.145Z,10.83
2023-03-24T01:41:41.891Z,10.85
2023-03-24T01:42:44.867Z,10.88
2023-03-24T01:43:48.391Z,10.79
2023-03-24T01:44:53.914Z,10.79
2023-03-24T01:46:02.829Z,10.81
2023-03-24T01:47:08.496Z,10.80
2023-03-24T01:48:17.420Z,10.85
2023-03-24T01:49:21.135Z,10.85
2023-03-24T01:50:24.144Z,10.81
2023-03-24T01:51:35.812Z,10.83
2023-03-24T01:52:39.562Z,10.89
2023-03-24T01:53:51.409Z,10.90
2023-03-24T01:55:00.144Z,10.85
2023-03-24T01:56:05.114Z,10.81
2023-03-24T01:57:15.818Z,10.76
2023-03-24T01:58:20.160Z,10.76
2023-03-24T01:59:28.189Z,10.73
2023-03-24T02:00:37.129Z,10.79
2023-03-24T02:01:46.278Z,10.73
2023-03-24T02:03:06.196Z,10.73
2023-03-24T02:04:11.536Z,10.67
2023-03-24T02:05:15.562Z,10.65
2023-03-24T02:06:21.940Z,10.67
2023-03-24T02:07:39.568Z,10.67
2023-03-24T02:08:54.460Z,10.67
2023-03-24T02:09:58.412Z,10.68
2023-03-24T02:11:01.942Z,10.73
2023-03-24T02:12:06.954Z,10.69
2023-03-24T02:13:10.766Z,10.68
2023-03-24T02:14:14.626Z,10.70
2023-03-24T02:15:19.153Z,10.71
2023-03-24T02:16:34.261Z,10.66
2023-03-24T02:18:02.373Z,10.62
2023-03-24T02:19:26.515Z,10.61
2023-03-24T02:20:32.714Z,10.64
2023-03-24T02:21:53.577Z,10.62
2023-03-24T02:23:07.323Z,10.59
2023-03-24T02:24:33.299Z,10.58
2023-03-24T02:25:58.155Z,10.59
2023-03-24T02:27:19.530Z,10.64
2023-03-24T02:28:31.600Z,10.65
2023-03-24T02:29:54.088Z,10.62
2023-03-24T02:31:35.596Z,10.59
2023-03-24T02:32:58.521Z,10.62
2023-03-24T02:34:19.518Z,10.63
2023-03-24T02:35:32.660Z,10.68
2023-03-24T02:36:58.938Z,10.63
2023-03-24T02:38:29.390Z,10.64
2023-03-24T02:39:53.672Z,10.66
2023-03-24T02:41:05.959Z,10.69
2023-03-24T02:42:24.077Z,10.69
2023-03-24T02:43:40.477Z,10.67
2023-03-24T02:44:58.460Z,10.68
2023-03-24T02:46:24.495Z,10.64
2023-03-24T02:47:33.973Z,10.62
2023-03-24T02:48:42.941Z,10.57
2023-03-24T02:49:48.858Z,10.52
2023-03-24T02:50:57.997Z,10.56
2023-03-24T02:52:06.840Z,10.59
2023-03-24T02:53:23.283Z,10.61
2023-03-24T02:54:47.776Z,10.61
2023-03-24T02:56:09.227Z,10.52
2023-03-24T02:57:21.247Z,10.48
2023-03-24T02:58:55.455Z,10.51
2023-03-24T03:00:17.703Z,10.50
2023-03-24T03:01:35.799Z,10.52
2023-03-24T03:02:51.080Z,10.48
2023-03-24T03:03:57.173Z,10.49
2023-03-24T03:05:06.731Z,10.51
2023-03-24T03:06:22.438Z,10.52
2023-03-24T03:07:26.757Z,10.48
2023-03-24T03:08:33.360Z,10.38
2023-03-24T03:09:39.359Z,10.38
2023-03-24T03:10:45.891Z,10.42
2023-03-24T03:11:52.019Z,10.39
2023-03-24T03:12:58.442Z,10.39
2023-03-24T03:14:04.347Z,10.38
2023-03-24T03:15:11.308Z,10.44
2023-03-24T03:16:17.858Z,10.47
2023-03-24T03:17:28.539Z,10.47
2023-03-24T03:18:40.368Z,10.45
2023-03-24T03:19:46.535Z,10.50
2023-03-24T03:20:52.627Z,10.57
2023-03-24T03:21:58.290Z,10.62
2023-03-24T03:23:05.024Z,10.55
2023-03-24T03:24:10.937Z,10.56
2023-03-24T03:25:17.812Z,10.55
2023-03-24T03:26:27.955Z,10.53
2023-03-24T03:27:35.622Z,10.54
2023-03-24T03:28:43.024Z,10.56
2023-03-24T03:29:49.526Z,10.55
2023-03-24T03:30:58.848Z,10.59
2023-03-24T03:32:10.523Z,10.52
2023-03-24T03:33:17.646Z,10.50
2023-03-24T03:34:35.759Z,10.51
2023-03-24T03:35:54.177Z,10.54
2023-03-24T03:37:09.203Z,10.57
2023-03-24T03:38:35.445Z,10.57
2023-03-24T03:39:44.168Z,10.59
2023-03-24T03:40:58.766Z,10.59
2023-03-24T03:42:06.016Z,10.63
2023-03-24T03:43:09.411Z,10.63
2023-03-24T03:44:14.154Z,10.66
2023-03-24T03:45:17.991Z,10.68
2023-03-24T03:46:20.643Z,10.69
2023-03-24T03:47:23.837Z,10.67
2023-03-24T03:48:28.705Z,10.67
2023-03-24T03:49:31.895Z,10.71
2023-03-24T03:50:35.340Z,10.73
2023-03-24T03:51:40.245Z,10.76
2023-03-24T03:52:44.070Z,10.76
2023-03-24T03:53:50.207Z,10.74
2023-03-24T03:54:55.448Z,10.75
2023-03-24T03:55:58.061Z,10.74
2023-03-24T03:57:01.892Z,10.77
2023-03-24T03:58:18.906Z,10.77
2023-03-24T03:59:29.167Z,10.74
2023-03-24T04:00:33.099Z,10.74
2023-03-24T04:01:49.479Z,10.73
2023-03-24T04:03:05.310Z,10.76
2023-03-24T04:04:21.173Z,10.77
2023-03-24T04:07:33.268Z,10.88
2023-03-24T04:08:47.399Z,10.78
2023-03-24T04:10:04.823Z,10.80
2023-03-24T04:11:19.675Z,10.81
2023-03-24T04:14:21.664Z,10.95
2023-03-24T04:15:51.123Z,10.85
2023-03-24T04:17:14.754Z,10.81
2023-03-24T04:18:23.808Z,10.81
2023-03-24T04:19:43.417Z,10.78
2023-03-24T04:21:05.732Z,10.77
2023-03-24T04:22:23.610Z,10.71
2023-03-24T04:23:39.306Z,10.74
2023-03-24T04:25:09.337Z,10.78
2023-03-24T04:26:39.152Z,10.78
2023-03-24T04:27:45.817Z,10.80
2023-03-24T04:28:56.976Z,10.80
2023-03-24T04:30:18.149Z,10.81
2023-03-24T04:31:33.557Z,10.82
2023-03-24T04:33:01.845Z,10.82
2023-03-24T04:34:15.056Z,10.80
2023-03-24T04:35:26.299Z,10.81
2023-03-24T04:38:02.959Z,10.92
2023-03-24T04:39:06.576Z,10.81
2023-03-24T04:40:16.757Z,10.83
2023-03-24T04:41:25.452Z,10.85
2023-03-24T04:42:48.157Z,10.85
2023-03-24T04:43:52.348Z,10.90
2023-03-24T04:44:57.118Z,10.88
2023-03-24T04:46:04.651Z,10.90
2023-03-24T04:47:16.805Z,10.90
2023-03-24T04:48:21.062Z,10.93
2023-03-24T04:49:28.425Z,10.94
2023-03-24T04:50:33.721Z,10.92
2023-03-24T04:51:36.685Z,10.92
2023-03-24T04:52:42.909Z,10.92
2023-03-24T04:53:46.616Z,10.91
2023-03-24T04:54:51.705Z,10.90
2023-03-24T04:56:02.564Z,10.88
2023-03-24T04:57:21.699Z,10.87
2023-03-24T04:59:35.970Z,11.06
2023-03-24T05:00:40.972Z,10.89
2023-03-24T05:01:46.014Z,10.92
2023-03-24T05:04:18.251Z,11.10
2023-03-24T05:05:21.908Z,10.92
2023-03-24T05:06:25.728Z,10.92
2023-03-24T05:07:28.064Z,10.92
2023-03-24T05:08:32.951Z,10.89
2023-03-24T05:09:36.437Z,10.92
2023-03-24T05:10:39.029Z,10.90
2023-03-24T05:11:42.237Z,10.89
2023-03-24T05:12:44.700Z,10.85
2023-03-24T05:13:49.077Z,10.85
2023-03-24T05:14:51.430Z,10.87
2023-03-24T05:15:54.174Z,10.92
2023-03-24T05:17:02.493Z,10.95
2023-03-24T05:18:06.275Z,11.00
2023-03-24T05:19:09.251Z,10.99
2023-03-24T05:20:12.268Z,11.03
2023-03-24T05:21:17.021Z,11.06
2023-03-24T05:22:19.348Z,11.07
2023-03-24T05:23:21.509Z,11.10
2023-03-24T05:24:25.415Z,11.13
2023-03-24T05:25:28.497Z,11.13
2023-03-24T05:26:33.182Z,11.13
2023-03-24T05:27:37.630Z,11.14
2023-03-24T05:28:42.090Z,11.11
2023-03-24T05:29:46.462Z,11.03
2023-03-24T05:30:50.934Z,10.99
2023-03-24T05:31:55.731Z,10.99
2023-03-24T05:32:59.013Z,11.00
2023-03-24T05:34:01.456Z,10.96
2023-03-24T05:35:06.196Z,11.02
2023-03-24T05:36:10.516Z,11.08
2023-03-24T05:37:17.759Z,11.06
2023-03-24T05:38:22.223Z,11.05
2023-03-24T05:39:27.787Z,10.99
2023-03-24T05:40:32.122Z,11.03
2023-03-24T05:41:39.860Z,11.11
2023-03-24T05:42:42.541Z,11.14
2023-03-24T05:43:46.142Z,11.19
2023-03-24T05:44:50.224Z,11.27
2023-03-24T05:45:56.108Z,11.24
2023-03-24T05:47:01.498Z,11.25
2023-03-24T05:48:03.988Z,11.17
2023-03-24T05:49:08.217Z,11.09
2023-03-24T05:50:13.605Z,11.06
2023-03-24T05:51:16.605Z,11.01
2023-03-24T05:52:23.015Z,11.09
2023-03-24T05:53:27.077Z,11.13
2023-03-24T05:54:33.814Z,11.21
2023-03-24T05:55:41.136Z,11.22
2023-03-24T05:56:45.496Z,11.26
2023-03-24T05:57:51.242Z,11.37
2023-03-24T05:58:55.433Z,11.48
2023-03-24T05:59:58.571Z,11.60
2023-03-24T06:01:19.426Z,11.66
2023-03-24T06:02:24.519Z,11.69
2023-03-24T06:03:31.419Z,11.72
2023-03-24T06:04:36.283Z,11.80
2023-03-24T06:05:42.066Z,11.89
2023-03-24T06:06:45.175Z,11.91
2023-03-24T06:07:48.739Z,11.97
2023-03-24T06:08:55.553Z,12.03
2023-03-24T06:10:01.674Z,12.10
2023-03-24T06:11:05.903Z,12.14
2023-03-24T06:12:10.834Z,12.04
2023-03-24T06:13:15.448Z,12.01
2023-03-24T06:14:20.142Z,11.95
2023-03-24T06:15:26.709Z,11.97
2023-03-24T06:16:33.185Z,11.98
2023-03-24T06:17:38.404Z,11.93
2023-03-24T06:18:42.812Z,11.94
2023-03-24T06:19:50.699Z,12.00
2023-03-24T06:20:59.191Z,12.08
2023-03-24T06:22:03.371Z,12.19
2023-03-24T06:23:08.470Z,12.24
2023-03-24T06:24:15.436Z,12.30
2023-03-24T06:25:22.012Z,12.39
2023-03-24T06:26:26.495Z,12.49
2023-03-24T06:27:30.889Z,12.45
2023-03-24T06:28:34.615Z,12.34
2023-03-24T06:29:40.909Z,12.33
2023-03-24T06:30:46.068Z,12.38
2023-03-24T06:31:50.540Z,12.47
2023-03-24T06:32:56.323Z,12.48
2023-03-24T06:34:00.210Z,12.46
2023-03-24T06:35:03.682Z,12.37
2023-03-24T06:36:13.898Z,12.37
2023-03-24T06:37:18.279Z,12.31
2023-03-24T06:38:22.738Z,12.32
2023-03-24T06:39:25.906Z,12.37
2023-03-24T06:40:28.913Z,12.32
2023-03-24T06:41:34.046Z,12.36
2023-03-24T06:42:37.114Z,12.43
2023-03-24T06:43:39.532Z,12.46
2023-03-24T06:44:41.879Z,12.39
2023-03-24T06:45:45.733Z,12.38
2023-03-24T06:46:50.989Z,12.34
2023-03-24T06:47:57.743Z,12.35
2023-03-24T06:49:00.823Z,12.32
2023-03-24T06:50:04.939Z,12.41
2023-03-24T06:51:08.592Z,12.44
2023-03-24T06:52:12.287Z,12.48
2023-03-24T06:53:16.429Z,12.55
2023-03-24T06:54:18.640Z,12.55
2023-03-24T06:55:21.652Z,12.59
2023-03-24T06:56:24.408Z,12.61
2023-03-24T06:57:30.057Z,12.66
2023-03-24T06:58:40.280Z,12.66
2023-03-24T06:59:45.691Z,12.66
2023-03-24T07:00:49.817Z,12.72
2023-03-24T07:01:54.923Z,12.72
2023-03-24T07:03:03.426Z,12.68
2023-03-24T07:04:06.753Z,12.63
2023-03-24T07:05:14.059Z,12.63
2023-03-24T07:06:20.059Z,12.65
2023-03-24T07:08:08.322Z,12.65
2023-03-24T07:08:38.584Z,12.66
2023-03-24T07:09:39.092Z,12.66
2023-03-24T07:10:41.962Z,12.57
2023-03-24T07:11:45.350Z,12.63
2023-03-24T07:12:48.123Z,12.59
2023-03-24T07:13:51.866Z,12.52
2023-03-24T07:14:55.474Z,12.52
2023-03-24T07:15:57.743Z,12.45
2023-03-24T07:17:01.415Z,12.46
2023-03-24T07:18:06.192Z,12.49
2023-03-24T07:19:13.359Z,12.55
2023-03-24T07:20:17.189Z,12.62
2023-03-24T07:21:21.803Z,12.66
2023-03-24T07:22:25.456Z,12.60
2023-03-24T07:24:48.081Z,12.70
2023-03-24T07:25:55.591Z,12.62
2023-03-24T07:27:18.476Z,12.64
2023-03-24T07:28:21.972Z,12.59
2023-03-24T07:29:25.238Z,12.59
2023-03-24T07:30:40.956Z,12.61
2023-03-24T07:31:44.185Z,12.59
2023-03-24T07:32:48.669Z,12.54
2023-03-24T07:33:53.589Z,12.51
2023-03-24T07:34:57.730Z,12.49
2023-03-24T07:36:00.084Z,12.53
2023-03-24T07:37:02.854Z,12.56
2023-03-24T07:38:06.248Z,12.60
2023-03-24T07:39:08.834Z,12.68
2023-03-24T07:40:14.364Z,12.70
2023-03-24T07:41:17.743Z,12.68
2023-03-24T07:42:21.967Z,12.67
2023-03-24T07:43:44.767Z,12.74
2023-03-24T07:46:09.603Z,12.94
2023-03-24T07:47:12.693Z,12.81
2023-03-24T07:48:17.549Z,12.80
2023-03-24T07:49:20.355Z,12.81
2023-03-24T07:50:40.332Z,12.87
2023-03-24T07:51:45.367Z,12.94
2023-03-24T07:52:52.904Z,12.90
2023-03-24T07:53:56.115Z,12.90
2023-03-24T07:55:01.639Z,12.89
2023-03-24T07:56:09.116Z,12.90
2023-03-24T07:57:13.378Z,12.96
2023-03-24T07:58:16.401Z,12.94
2023-03-24T07:59:21.784Z,12.96
2023-03-24T08:00:24.467Z,12.91
2023-03-24T08:01:29.278Z,12.91
2023-03-24T08:02:33.455Z,12.91
2023-03-24T08:03:42.174Z,13.01
2023-03-24T08:04:52.904Z,13.00
2023-03-24T08:06:05.309Z,13.00
2023-03-24T08:07:11.310Z,12.98
2023-03-24T08:08:14.345Z,13.04
2023-03-24T08:09:17.326Z,13.10
2023-03-24T08:10:23.499Z,13.17
2023-03-24T08:11:25.997Z,13.29
2023-03-24T08:12:28.375Z,13.28
2023-03-24T08:13:31.895Z,13.26
2023-03-24T08:14:34.540Z,13.32
2023-03-24T08:15:37.354Z,13.38
2023-03-24T08:16:42.133Z,13.40
2023-03-24T08:17:46.171Z,13.32
2023-03-24T08:18:51.261Z,13.33
2023-03-24T08:20:00.127Z,13.38
2023-03-24T08:21:00.811Z,13.38
2023-03-24T08:22:03.492Z,13.42
2023-03-24T08:23:06.017Z,13.38
2023-03-24T08:24:08.275Z,13.38
2023-03-24T08:25:12.726Z,13.43
2023-03-24T08:26:15.198Z,13.50
2023-03-24T08:27:17.377Z,13.45
2023-03-24T08:28:20.028Z,13.42
2023-03-24T08:29:22.339Z,13.50
2023-03-24T08:30:26.680Z,13.50
2023-03-24T08:31:35.013Z,13.53
2023-03-24T08:32:37.689Z,13.66
2023-03-24T08:33:41.750Z,13.68
2023-03-24T08:34:44.197Z,13.79
2023-03-24T08:35:47.667Z,13.78
2023-03-24T08:36:50.721Z,13.80
2023-03-24T08:37:52.998Z,13.87
2023-03-24T08:38:56.332Z,13.90
2023-03-24T08:40:01.174Z,13.98
2023-03-24T08:41:06.118Z,13.96
2023-03-24T08:42:08.541Z,14.02
2023-03-24T08:43:14.051Z,14.00
2023-03-24T08:44:16.929Z,13.98
2023-03-24T08:45:22.945Z,13.97
2023-03-24T08:46:25.997Z,14.07
2023-03-24T08:47:29.669Z,14.16
2023-03-24T08:48:32.434Z,14.11
2023-03-24T08:49:34.868Z,14.14
2023-03-24T08:50:41.137Z,14.14
2023-03-24T08:51:44.403Z,14.21
2023-03-24T08:52:49.981Z,14.24
2023-03-24T08:53:53.333Z,14.26
2023-03-24T08:54:56.005Z,14.34
2023-03-24T08:55:58.441Z,14.26
2023-03-24T08:57:00.827Z,14.12
2023-03-24T08:58:04.356Z,14.07
2023-03-24T08:59:06.932Z,14.08
2023-03-24T09:00:12.635Z,14.17
2023-03-24T09:01:15.492Z,14.24
2023-03-24T09:02:17.924Z,14.35
2023-03-24T09:03:21.591Z,14.38
2023-03-24T09:04:24.798Z,14.37
2023-03-24T09:05:43.564Z,14.41
2023-03-24T09:06:32.243Z,14.46
2023-03-24T09:07:34.918Z,14.59
2023-03-24T09:08:37.654Z,14.60
2023-03-24T09:09:40.195Z,14.61
2023-03-24T09:10:46.251Z,14.71
2023-03-24T09:11:48.895Z,14.83
2023-03-24T09:12:52.212Z,14.94
2023-03-24T09:13:54.731Z,14.90
2023-03-24T09:14:56.740Z,15.00
2023-03-24T09:16:02.957Z,15.16
2023-03-24T09:17:06.510Z,15.08
2023-03-24T09:18:09.257Z,14.89
2023-03-24T09:19:11.702Z,15.03
2023-03-24T09:20:15.338Z,14.95
2023-03-24T09:21:18.158Z,14.98
2023-03-24T09:22:20.540Z,14.99
2023-03-24T09:23:23.158Z,15.10
2023-03-24T09:24:25.686Z,15.04
2023-03-24T09:25:27.953Z,14.97
2023-03-24T09:26:30.518Z,14.88
2023-03-24T09:27:33.067Z,14.88
2023-03-24T09:28:35.529Z,14.99
2023-03-24T09:29:38.119Z,15.04
2023-03-24T09:30:41.773Z,15.11
2023-03-24T09:31:44.244Z,15.17
2023-03-24T09:32:47.118Z,15.14
2023-03-24T09:33:50.559Z,15.06
2023-03-24T09:34:53.527Z,15.23
2023-03-24T09:35:59.649Z,15.24
2023-03-24T09:37:01.667Z,15.20
2023-03-24T09:38:05.416Z,15.31
2023-03-24T09:39:09.405Z,15.41
2023-03-24T09:40:28.425Z,15.41
2023-03-24T09:41:33.219Z,15.33
2023-03-24T09:42:39.251Z,15.31
2023-03-24T09:43:46.405Z,15.32
2023-03-24T09:44:53.077Z,15.24
2023-03-24T09:45:59.185Z,15.27
2023-03-24T09:47:20.161Z,15.39
2023-03-24T09:48:38.773Z,15.49
2023-03-24T09:49:43.783Z,15.59
2023-03-24T09:51:13.895Z,15.49
2023-03-24T09:52:19.725Z,15.37
2023-03-24T09:53:34.322Z,15.26
2023-03-24T09:54:49.380Z,15.29
2023-03-24T09:55:52.473Z,15.34
2023-03-24T09:56:57.020Z,15.40
2023-03-24T09:58:03.059Z,15.29
2023-03-24T09:59:17.640Z,15.33
2023-03-24T10:00:27.539Z,15.42
2023-03-24T10:01:30.271Z,15.54
2023-03-24T10:02:32.756Z,15.65
2023-03-24T10:03:36.265Z,15.82
2023-03-24T10:04:38.877Z,15.77
2023-03-24T10:06:01.441Z,15.66
2023-03-24T10:07:10.329Z,15.75
2023-03-24T10:08:19.707Z,15.94
2023-03-24T10:09:28.323Z,16.07
2023-03-24T10:10:37.067Z,16.18
2023-03-24T10:11:45.797Z,16.24
2023-03-24T10:12:49.783Z,16.24
2023-03-24T10:13:55.917Z,16.24
2023-03-24T10:15:37.378Z,16.36
2023-03-24T10:16:46.827Z,16.52
2023-03-24T10:17:57.240Z,16.40
2023-03-24T10:19:22.420Z,16.45
2023-03-24T10:20:37.415Z,16.33
2023-03-24T10:21:43.478Z,16.28
2023-03-24T10:23:05.812Z,16.16
2023-03-24T10:24:18.114Z,16.18
2023-03-24T10:25:24.116Z,16.15
2023-03-24T10:26:49.856Z,16.16
2023-03-24T10:28:02.354Z,16.32
2023-03-24T10:29:23.531Z,16.33
2023-03-24T10:30:36.461Z,16.23
2023-03-24T10:31:41.084Z,16.31
2023-03-24T10:32:45.340Z,16.33
2023-03-24T10:33:47.786Z,16.52
2023-03-24T10:34:57.370Z,16.68
2023-03-24T10:36:12.078Z,16.58
2023-03-24T10:37:15.922Z,16.60
2023-03-24T10:38:20.830Z,16.47
2023-03-24T10:39:28.620Z,16.61
2023-03-24T10:40:33.713Z,16.66
2023-03-24T10:41:40.149Z,16.71
2023-03-24T10:42:44.793Z,16.67
2023-03-24T10:43:49.491Z,16.58
2023-03-24T10:44:52.571Z,16.67
2023-03-24T10:45:57.945Z,16.58
2023-03-24T10:47:03.258Z,16.53
2023-03-24T10:48:09.658Z,16.57
2023-03-24T10:49:15.737Z,16.70
2023-03-24T10:50:18.503Z,16.67
2023-03-24T10:51:27.386Z,16.70
2023-03-24T10:52:34.039Z,16.86
2023-03-24T10:53:37.042Z,16.99
2023-03-24T10:54:44.036Z,16.99
2023-03-24T10:55:48.987Z,16.96
2023-03-24T10:57:04.825Z,17.04
2023-03-24T10:58:22.979Z,16.92
2023-03-24T10:59:31.624Z,17.01
2023-03-24T11:00:39.584Z,17.01
2023-03-24T11:01:41.933Z,17.09
2023-03-24T11:02:47.901Z,16.88
2023-03-24T11:03:52.312Z,16.88
2023-03-24T11:04:58.119Z,16.64
2023-03-24T11:06:05.596Z,16.64
2023-03-24T11:07:14.260Z,16.55
2023-03-24T11:08:20.260Z,16.58
2023-03-24T11:09:23.766Z,16.59
2023-03-24T11:10:27.261Z,16.61
2023-03-24T11:11:31.890Z,16.71
2023-03-24T11:12:38.327Z,16.73
2023-03-24T11:13:40.595Z,16.82
2023-03-24T11:14:46.323Z,16.72
2023-03-24T11:15:57.971Z,16.64
2023-03-24T11:17:15.612Z,16.53
2023-03-24T11:18:18.880Z,16.50
2023-03-24T11:19:24.767Z,16.65
2023-03-24T11:20:38.855Z,16.61
2023-03-24T11:21:43.621Z,16.61
2023-03-24T11:22:59.091Z,16.57
2023-03-24T11:24:04.410Z,16.57
2023-03-24T11:25:10.435Z,16.57
2023-03-24T11:26:16.428Z,16.64
2023-03-24T11:27:20.313Z,16.61
2023-03-24T11:28:26.290Z,16.68
2023-03-24T11:29:32.690Z,16.67
2023-03-24T11:30:50.001Z,16.74
2023-03-24T11:31:55.934Z,16.81
2023-03-24T11:32:59.252Z,16.88
2023-03-24T11:34:12.384Z,16.93
2023-03-24T11:35:18.828Z,16.86
2023-03-24T11:36:34.160Z,16.84
2023-03-24T11:37:37.828Z,16.86
2023-03-24T11:38:41.402Z,16.95
2023-03-24T11:39:44.083Z,17.03
2023-03-24T11:40:58.076Z,17.17
2023-03-24T11:42:16.976Z,17.26
2023-03-24T11:43:21.406Z,17.13
2023-03-24T11:44:25.047Z,17.16
2023-03-24T11:45:42.839Z,17.20
2023-03-24T11:46:49.579Z,17.32
2023-03-24T11:47:55.853Z,17.40
2023-03-24T11:48:59.764Z,17.50
2023-03-24T11:50:16.066Z,17.52
2023-03-24T11:51:35.393Z,17.56
2023-03-24T11:52:41.360Z,17.58
2023-03-24T11:53:50.239Z,17.73
2023-03-24T11:54:52.605Z,17.91
2023-03-24T11:56:21.248Z,18.03
2023-03-24T11:59:06.134Z,18.10
2023-03-24T12:00:17.111Z,18.07
2023-03-24T12:01:25.089Z,18.16
2023-03-24T12:02:52.122Z,18.14
2023-03-24T12:04:16.600Z,18.12
2023-03-24T12:05:43.784Z,18.15
2023-03-24T12:07:10.435Z,18.23
2023-03-24T12:08:19.403Z,18.09
2023-03-24T12:09:34.270Z,18.20
2023-03-24T12:10:52.200Z,18.25
2023-03-24T12:12:08.781Z,18.37
2023-03-24T12:14:56.205Z,18.57
2023-03-24T12:16:18.416Z,18.40
2023-03-24T12:17:29.199Z,18.53
2023-03-24T12:18:41.082Z,18.50
2023-03-24T12:19:59.060Z,18.44
2023-03-24T12:21:25.425Z,18.42
2023-03-24T12:22:43.667Z,18.43
2023-03-24T12:24:13.865Z,18.47
2023-03-24T12:25:42.038Z,18.42
2023-03-24T12:26:44.571Z,18.62
2023-03-24T12:28:00.437Z,18.75
2023-03-24T12:29:33.621Z,18.87
2023-03-24T12:31:02.537Z,18.89
2023-03-24T12:32:23.600Z,18.82
2023-03-24T12:33:36.828Z,19.02
2023-03-24T12:35:11.843Z,19.01
2023-03-24T12:36:36.720Z,19.16
2023-03-24T12:38:08.250Z,19.25
2023-03-24T12:39:15.894Z,19.05
2023-03-24T12:40:39.383Z,19.01
2023-03-24T12:42:00.746Z,18.99
2023-03-24T12:43:09.927Z,18.91
2023-03-24T12:44:42.091Z,18.94
2023-03-24T12:45:50.217Z,18.78
2023-03-24T12:47:31.525Z,18.97
2023-03-24T12:49:01.105Z,18.99
2023-03-24T12:50:23.978Z,18.92
2023-03-24T12:51:36.449Z,18.73
2023-03-24T12:53:08.582Z,18.57
2023-03-24T12:54:34.006Z,18.61
2023-03-24T12:55:43.063Z,18.66
2023-03-24T12:58:53.975Z,18.77
2023-03-24T13:00:07.381Z,18.65
2023-03-24T13:01:28.877Z,18.69
2023-03-24T13:02:39.968Z,18.65
2023-03-24T13:03:52.978Z,18.76
2023-03-24T13:05:04.810Z,18.90
2023-03-24T13:06:17.630Z,18.95
2023-03-24T13:07:25.636Z,18.89
2023-03-24T13:08:32.106Z,18.89
2023-03-24T13:09:58.952Z,19.05
2023-03-24T13:11:08.020Z,19.09
2023-03-24T13:12:14.342Z,19.33
2023-03-24T13:13:23.269Z,19.60
2023-03-24T13:14:29.186Z,19.83
2023-03-24T13:15:56.296Z,20.03
2023-03-24T13:17:05.168Z,20.18
2023-03-24T13:18:11.048Z,20.10
2023-03-24T13:19:21.282Z,20.41
2023-03-24T13:20:48.159Z,20.43
2023-03-24T13:21:54.397Z,20.52
2023-03-24T13:23:00.995Z,20.40
2023-03-24T13:24:14.374Z,19.92
2023-03-24T13:25:36.870Z,19.95
2023-03-24T13:27:06.695Z,19.99
2023-03-24T13:28:12.718Z,20.14
2023-03-24T13:29:24.822Z,20.11
2023-03-24T13:30:33.547Z,20.07
2023-03-24T13:31:51.535Z,20.07
2023-03-24T13:32:58.333Z,19.94
2023-03-24T13:34:03.027Z,19.54
2023-03-24T13:35:21.640Z,19.68
2023-03-24T13:36:46.370Z,19.79
2023-03-24T13:37:55.298Z,19.67
2023-03-24T13:39:05.131Z,19.50
2023-03-24T13:40:15.722Z,19.52
2023-03-24T13:41:23.898Z,19.24
2023-03-24T13:42:35.319Z,19.21
2023-03-24T13:43:42.218Z,19.03
2023-03-24T13:44:48.337Z,18.89
2023-03-24T13:46:07.128Z,18.74
2023-03-24T13:47:17.054Z,18.82
2023-03-24T13:48:41.670Z,19.14
2023-03-24T13:50:06.167Z,18.98
2023-03-24T13:51:18.000Z,19.07
2023-03-24T13:52:28.984Z,19.13
2023-03-24T13:53:46.346Z,18.90
2023-03-24T13:54:51.037Z,18.82
2023-03-24T13:55:53.565Z,18.71
2023-03-24T13:57:08.106Z,18.66
2023-03-24T13:58:28.953Z,18.71
2023-03-24T13:59:41.105Z,18.71
2023-03-24T14:01:07.250Z,18.76
2023-03-24T14:02:19.368Z,18.71
2023-03-24T14:03:33.789Z,18.64
2023-03-24T14:05:04.174Z,18.60
2023-03-24T14:06:09.682Z,18.65
2023-03-24T14:07:31.998Z,18.65
2023-03-24T14:08:53.187Z,18.60
2023-03-24T14:10:05.211Z,18.57
2023-03-24T14:11:37.148Z,18.52
2023-03-24T14:13:01.300Z,18.54
2023-03-24T14:14:19.714Z,18.48
2023-03-24T14:15:34.425Z,18.52
2023-03-24T14:16:59.868Z,18.48
2023-03-24T14:18:26.086Z,18.51
2023-03-24T14:19:41.440Z,18.50
2023-03-24T14:21:00.234Z,18.45
2023-03-24T14:22:24.056Z,18.49
2023-03-24T14:23:48.755Z,18.48
2023-03-24T14:26:17.689Z,18.60
2023-03-24T14:27:35.820Z,18.47
2023-03-24T14:28:43.028Z,18.41
2023-03-24T14:29:51.374Z,18.36
2023-03-24T14:31:17.860Z,18.36
2023-03-24T14:32:22.588Z,18.37
2023-03-24T14:33:28.080Z,18.34
2023-03-24T14:34:30.562Z,18.32
2023-03-24T14:35:43.471Z,18.32
2023-03-24T14:36:50.289Z,18.32
2023-03-24T14:37:59.962Z,18.25
2023-03-24T14:39:33.886Z,18.27
2023-03-24T14:40:39.994Z,18.24
2023-03-24T14:41:45.343Z,18.25
2023-03-24T14:42:51.549Z,18.24
2023-03-24T14:44:00.843Z,18.25
2023-03-24T14:45:27.947Z,18.21
2023-03-24T14:46:48.820Z,18.24
2023-03-24T14:48:01.003Z,18.23
2023-03-24T14:49:09.849Z,18.18
2023-03-24T14:50:23.216Z,18.18
2023-03-24T14:51:32.350Z,18.19
2023-03-24T14:52:39.664Z,18.22
2023-03-24T14:53:41.989Z,18.24
2023-03-24T14:54:47.678Z,18.25
2023-03-24T14:55:52.112Z,18.22
2023-03-24T14:56:58.001Z,18.22
2023-03-24T14:58:04.037Z,18.20
2023-03-24T14:59:12.693Z,18.19
2023-03-24T15:00:23.380Z,18.15
2023-03-24T15:01:30.764Z,18.17